Carlos, Minnesota
Current Conditions -  °F | °C
As of 10:53 AM on Saturday 20 Dec 2014 (Local Time) from KAXN Reporting Station
Haze Haze  
Wind Chill: 21°   Ceiling: 500
Heat Index: 30°   Visibility: 4mi
Dew Point: 28°   Wind: 10mph
Humidity: 92%   Direction: 190°S
Pressure: 30.06"   Gusts: NA
Location:  45.97°N, 95.29°W
Report Text: KAXN 201653Z AUTO 19009KT 4SM BR OVC005 M01/M02 A3006 RMK AO2 SLP199 T10111022
Loading
Personal Weather Stations






























Interactive Weather Map New forecast layout! Learn more

10-Day Weather Forecast

Advertisements
Track Severe Weather on mobile